sensor_id;sensor_type;location;lat;lon;timestamp;P1;durP1;ratioP1;P2;durP2;ratioP2
5801;SDS011;2927;49.366;8.530;2023-04-25T00:01:20;4.40;;;4.00;;
5801;SDS011;2927;49.366;8.530;2023-04-25T00:03:49;4.40;;;4.00;;
5801;SDS011;2927;49.366;8.530;2023-04-25T00:06:15;7.13;;;4.77;;
5801;SDS011;2927;49.366;8.530;2023-04-25T00:08:42;5.73;;;4.80;;
5801;SDS011;2927;49.366;8.530;2023-04-25T00:11:08;4.77;;;4.43;;
5801;SDS011;2927;49.366;8.530;2023-04-25T00:13:33;5.20;;;4.67;;
5801;SDS011;2927;49.366;8.530;2023-04-25T00:15:59;5.40;;;4.90;;
5801;SDS011;2927;49.366;8.530;2023-04-25T00:18:25;7.47;;;4.80;;
5801;SDS011;2927;49.366;8.530;2023-04-25T00:20:54;11.03;;;5.93;;
5801;SDS011;2927;49.366;8.530;2023-04-25T00:23:20;8.60;;;4.73;;
5801;SDS011;2927;49.366;8.530;2023-04-25T00:25:47;7.60;;;4.50;;
5801;SDS011;2927;49.366;8.530;2023-04-25T00:28:14;11.20;;;5.10;;
5801;SDS011;2927;49.366;8.530;2023-04-25T00:30:40;6.17;;;4.97;;
5801;SDS011;2927;49.366;8.530;2023-04-25T00:33:06;5.90;;;5.07;;
5801;SDS011;2927;49.366;8.530;2023-04-25T00:35:32;7.80;;;5.17;;
5801;SDS011;2927;49.366;8.530;2023-04-25T00:37:57;7.77;;;5.60;;
5801;SDS011;2927;49.366;8.530;2023-04-25T00:40:23;6.33;;;4.73;;
5801;SDS011;2927;49.366;8.530;2023-04-25T00:42:49;9.63;;;4.90;;
5801;SDS011;2927;49.366;8.530;2023-04-25T00:45:16;5.60;;;4.80;;
5801;SDS011;2927;49.366;8.530;2023-04-25T00:47:42;4.70;;;4.30;;
5801;SDS011;2927;49.366;8.530;2023-04-25T00:50:09;8.70;;;5.20;;
5801;SDS011;2927;49.366;8.530;2023-04-25T00:52:36;6.03;;;5.43;;
5801;SDS011;2927;49.366;8.530;2023-04-25T00:55:03;9.00;;;5.00;;
5801;SDS011;2927;49.366;8.530;2023-04-25T00:57:30;11.13;;;6.17;;
5801;SDS011;2927;49.366;8.530;2023-04-25T00:59:55;7.90;;;5.50;;
5801;SDS011;2927;49.366;8.530;2023-04-25T01:02:21;9.00;;;5.93;;
5801;SDS011;2927;49.366;8.530;2023-04-25T01:04:47;6.90;;;5.40;;
5801;SDS011;2927;49.366;8.530;2023-04-25T01:07:13;8.90;;;6.00;;
5801;SDS011;2927;49.366;8.530;2023-04-25T01:09:39;12.17;;;6.10;;
5801;SDS011;2927;49.366;8.530;2023-04-25T01:12:05;9.07;;;5.70;;
5801;SDS011;2927;49.366;8.530;2023-04-25T01:14:30;11.23;;;5.83;;
5801;SDS011;2927;49.366;8.530;2023-04-25T01:16:56;8.80;;;5.37;;
5801;SDS011;2927;49.366;8.530;2023-04-25T01:19:22;10.80;;;5.93;;
5801;SDS011;2927;49.366;8.530;2023-04-25T01:21:48;8.20;;;5.83;;
5801;SDS011;2927;49.366;8.530;2023-04-25T01:24:13;7.60;;;5.60;;
5801;SDS011;2927;49.366;8.530;2023-04-25T01:26:39;5.10;;;4.60;;
5801;SDS011;2927;49.366;8.530;2023-04-25T01:29:09;9.50;;;5.37;;
5801;SDS011;2927;49.366;8.530;2023-04-25T01:31:35;6.40;;;5.60;;
5801;SDS011;2927;49.366;8.530;2023-04-25T01:34:01;9.40;;;6.17;;
5801;SDS011;2927;49.366;8.530;2023-04-25T01:36:27;6.93;;;5.87;;
5801;SDS011;2927;49.366;8.530;2023-04-25T01:38:53;5.93;;;5.03;;
5801;SDS011;2927;49.366;8.530;2023-04-25T01:41:20;8.17;;;6.40;;
5801;SDS011;2927;49.366;8.530;2023-04-25T01:43:48;9.30;;;5.80;;
5801;SDS011;2927;49.366;8.530;2023-04-25T01:46:13;9.70;;;6.60;;
5801;SDS011;2927;49.366;8.530;2023-04-25T01:48:39;10.53;;;6.90;;
5801;SDS011;2927;49.366;8.530;2023-04-25T01:51:05;9.33;;;6.20;;
5801;SDS011;2927;49.366;8.530;2023-04-25T01:53:30;9.13;;;5.77;;
5801;SDS011;2927;49.366;8.530;2023-04-25T01:55:56;8.63;;;5.73;;
5801;SDS011;2927;49.366;8.530;2023-04-25T01:58:22;7.23;;;5.50;;
5801;SDS011;2927;49.366;8.530;2023-04-25T02:45:36;8.17;;;6.33;;
5801;SDS011;2927;49.366;8.530;2023-04-25T02:48:03;9.60;;;6.80;;
5801;SDS011;2927;49.366;8.530;2023-04-25T02:50:28;15.00;;;7.97;;
5801;SDS011;2927;49.366;8.530;2023-04-25T02:52:54;11.90;;;7.73;;
5801;SDS011;2927;49.366;8.530;2023-04-25T02:55:20;12.23;;;7.17;;
5801;SDS011;2927;49.366;8.530;2023-04-25T02:57:45;12.20;;;6.60;;
5801;SDS011;2927;49.366;8.530;2023-04-25T03:00:11;10.00;;;7.20;;
5801;SDS011;2927;49.366;8.530;2023-04-25T03:02:39;8.93;;;7.60;;
5801;SDS011;2927;49.366;8.530;2023-04-25T03:05:04;9.50;;;7.30;;
5801;SDS011;2927;49.366;8.530;2023-04-25T03:07:30;12.13;;;6.40;;
5801;SDS011;2927;49.366;8.530;2023-04-25T03:09:56;10.63;;;7.60;;
5801;SDS011;2927;49.366;8.530;2023-04-25T03:12:22;10.13;;;7.17;;
5801;SDS011;2927;49.366;8.530;2023-04-25T03:14:47;15.00;;;8.10;;
5801;SDS011;2927;49.366;8.530;2023-04-25T03:17:13;10.37;;;7.70;;
5801;SDS011;2927;49.366;8.530;2023-04-25T03:19:38;12.90;;;7.07;;
5801;SDS011;2927;49.366;8.530;2023-04-25T03:22:04;10.40;;;7.10;;
5801;SDS011;2927;49.366;8.530;2023-04-25T03:24:29;11.40;;;6.63;;
5801;SDS011;2927;49.366;8.530;2023-04-25T03:26:55;10.40;;;6.30;;
5801;SDS011;2927;49.366;8.530;2023-04-25T03:29:20;17.00;;;7.67;;
5801;SDS011;2927;49.366;8.530;2023-04-25T03:31:49;11.13;;;7.20;;
5801;SDS011;2927;49.366;8.530;2023-04-25T03:34:15;10.13;;;6.73;;
5801;SDS011;2927;49.366;8.530;2023-04-25T03:36:40;9.13;;;6.67;;
5801;SDS011;2927;49.366;8.530;2023-04-25T03:39:06;8.07;;;6.27;;
5801;SDS011;2927;49.366;8.530;2023-04-25T03:41:31;10.50;;;5.80;;
5801;SDS011;2927;49.366;8.530;2023-04-25T03:43:57;10.87;;;7.27;;
5801;SDS011;2927;49.366;8.530;2023-04-25T03:46:22;13.40;;;6.80;;
5801;SDS011;2927;49.366;8.530;2023-04-25T03:48:48;8.97;;;6.67;;
5801;SDS011;2927;49.366;8.530;2023-04-25T03:51:13;11.23;;;7.23;;
5801;SDS011;2927;49.366;8.530;2023-04-25T03:53:39;9.93;;;6.87;;
5801;SDS011;2927;49.366;8.530;2023-04-25T03:56:04;9.00;;;6.37;;
5801;SDS011;2927;49.366;8.530;2023-04-25T03:58:30;11.50;;;7.17;;
5801;SDS011;2927;49.366;8.530;2023-04-25T04:00:56;8.63;;;6.20;;
5801;SDS011;2927;49.366;8.530;2023-04-25T04:03:21;22.33;;;7.83;;
5801;SDS011;2927;49.366;8.530;2023-04-25T04:05:47;7.40;;;6.50;;
5801;SDS011;2927;49.366;8.530;2023-04-25T04:08:12;8.27;;;6.23;;
5801;SDS011;2927;49.366;8.530;2023-04-25T04:10:38;12.97;;;7.57;;
5801;SDS011;2927;49.366;8.530;2023-04-25T04:13:03;8.43;;;6.33;;
5801;SDS011;2927;49.366;8.530;2023-04-25T04:15:29;9.53;;;6.40;;
5801;SDS011;2927;49.366;8.530;2023-04-25T04:17:57;9.07;;;7.00;;
5801;SDS011;2927;49.366;8.530;2023-04-25T04:20:27;13.23;;;7.77;;
5801;SDS011;2927;49.366;8.530;2023-04-25T04:22:53;10.90;;;8.27;;
5801;SDS011;2927;49.366;8.530;2023-04-25T04:25:19;12.40;;;8.87;;
5801;SDS011;2927;49.366;8.530;2023-04-25T04:27:45;12.23;;;8.93;;
5801;SDS011;2927;49.366;8.530;2023-04-25T04:30:11;11.03;;;8.30;;
5801;SDS011;2927;49.366;8.530;2023-04-25T04:32:38;16.30;;;7.77;;
5801;SDS011;2927;49.366;8.530;2023-04-25T04:35:04;10.63;;;8.67;;
5801;SDS011;2927;49.366;8.530;2023-04-25T04:37:31;13.07;;;8.03;;
5801;SDS011;2927;49.366;8.530;2023-04-25T04:39:57;11.80;;;8.40;;
5801;SDS011;2927;49.366;8.530;2023-04-25T04:42:23;12.17;;;7.47;;
5801;SDS011;2927;49.366;8.530;2023-04-25T04:44:49;13.50;;;9.10;;
5801;SDS011;2927;49.366;8.530;2023-04-25T04:47:15;16.23;;;9.07;;
5801;SDS011;2927;49.366;8.530;2023-04-25T04:49:40;11.80;;;8.20;;
5801;SDS011;2927;49.366;8.530;2023-04-25T04:52:06;12.60;;;9.67;;
5801;SDS011;2927;49.366;8.530;2023-04-25T04:54:31;10.60;;;7.40;;
5801;SDS011;2927;49.366;8.530;2023-04-25T04:56:57;10.80;;;7.40;;
5801;SDS011;2927;49.366;8.530;2023-04-25T04:59:23;11.80;;;7.50;;
5801;SDS011;2927;49.366;8.530;2023-04-25T05:01:49;10.30;;;7.90;;
5801;SDS011;2927;49.366;8.530;2023-04-25T05:04:14;12.33;;;7.97;;
5801;SDS011;2927;49.366;8.530;2023-04-25T05:06:40;16.63;;;9.10;;
5801;SDS011;2927;49.366;8.530;2023-04-25T05:09:06;15.60;;;7.90;;
5801;SDS011;2927;49.366;8.530;2023-04-25T05:11:31;19.10;;;10.83;;
5801;SDS011;2927;49.366;8.530;2023-04-25T05:13:57;14.37;;;8.20;;
5801;SDS011;2927;49.366;8.530;2023-04-25T05:16:22;9.50;;;7.60;;
5801;SDS011;2927;49.366;8.530;2023-04-25T05:18:48;8.97;;;6.57;;
5801;SDS011;2927;49.366;8.530;2023-04-25T05:21:13;8.23;;;6.10;;
5801;SDS011;2927;49.366;8.530;2023-04-25T05:23:39;13.17;;;7.37;;
5801;SDS011;2927;49.366;8.530;2023-04-25T05:26:04;9.30;;;7.27;;
5801;SDS011;2927;49.366;8.530;2023-04-25T05:28:30;9.20;;;6.97;;
5801;SDS011;2927;49.366;8.530;2023-04-25T05:30:56;8.23;;;6.60;;
5801;SDS011;2927;49.366;8.530;2023-04-25T05:33:21;10.20;;;6.77;;
5801;SDS011;2927;49.366;8.530;2023-04-25T05:35:47;9.40;;;6.50;;
5801;SDS011;2927;49.366;8.530;2023-04-25T05:38:13;10.90;;;7.57;;
5801;SDS011;2927;49.366;8.530;2023-04-25T05:40:38;10.20;;;7.27;;
5801;SDS011;2927;49.366;8.530;2023-04-25T05:43:04;8.10;;;7.20;;
5801;SDS011;2927;49.366;8.530;2023-04-25T05:45:29;9.53;;;7.50;;
5801;SDS011;2927;49.366;8.530;2023-04-25T05:47:55;8.83;;;6.87;;
5801;SDS011;2927;49.366;8.530;2023-04-25T05:50:20;10.37;;;7.07;;
5801;SDS011;2927;49.366;8.530;2023-04-25T05:52:46;12.90;;;7.97;;
5801;SDS011;2927;49.366;8.530;2023-04-25T05:55:12;9.60;;;7.77;;
5801;SDS011;2927;49.366;8.530;2023-04-25T05:57:38;11.13;;;7.70;;
5801;SDS011;2927;49.366;8.530;2023-04-25T06:00:06;11.77;;;7.43;;
5801;SDS011;2927;49.366;8.530;2023-04-25T06:02:34;9.03;;;7.07;;
5801;SDS011;2927;49.366;8.530;2023-04-25T06:05:00;11.27;;;7.40;;
5801;SDS011;2927;49.366;8.530;2023-04-25T06:07:28;9.47;;;7.87;;
5801;SDS011;2927;49.366;8.530;2023-04-25T06:09:54;9.33;;;7.47;;
5801;SDS011;2927;49.366;8.530;2023-04-25T06:12:20;9.70;;;7.03;;
5801;SDS011;2927;49.366;8.530;2023-04-25T06:14:46;11.90;;;8.10;;
5801;SDS011;2927;49.366;8.530;2023-04-25T06:17:11;9.53;;;7.80;;
5801;SDS011;2927;49.366;8.530;2023-04-25T06:19:37;11.80;;;8.30;;
5801;SDS011;2927;49.366;8.530;2023-04-25T06:22:02;13.07;;;8.63;;
5801;SDS011;2927;49.366;8.530;2023-04-25T06:24:28;14.03;;;8.60;;
5801;SDS011;2927;49.366;8.530;2023-04-25T06:26:53;10.60;;;8.20;;
5801;SDS011;2927;49.366;8.530;2023-04-25T06:29:19;14.97;;;10.47;;
5801;SDS011;2927;49.366;8.530;2023-04-25T06:31:45;13.80;;;9.83;;
5801;SDS011;2927;49.366;8.530;2023-04-25T06:34:11;14.20;;;8.87;;
5801;SDS011;2927;49.366;8.530;2023-04-25T06:36:36;15.53;;;9.43;;
5801;SDS011;2927;49.366;8.530;2023-04-25T06:39:02;15.07;;;9.50;;
5801;SDS011;2927;49.366;8.530;2023-04-25T06:41:28;12.37;;;8.37;;
5801;SDS011;2927;49.366;8.530;2023-04-25T06:43:53;13.87;;;9.47;;
5801;SDS011;2927;49.366;8.530;2023-04-25T06:46:19;12.77;;;9.07;;
5801;SDS011;2927;49.366;8.530;2023-04-25T06:48:45;10.47;;;8.20;;
5801;SDS011;2927;49.366;8.530;2023-04-25T06:51:10;10.10;;;7.77;;
5801;SDS011;2927;49.366;8.530;2023-04-25T06:53:38;12.17;;;9.90;;
5801;SDS011;2927;49.366;8.530;2023-04-25T06:56:03;10.87;;;8.53;;
5801;SDS011;2927;49.366;8.530;2023-04-25T06:58:29;14.07;;;9.37;;
5801;SDS011;2927;49.366;8.530;2023-04-25T07:00:55;12.77;;;9.10;;
5801;SDS011;2927;49.366;8.530;2023-04-25T07:03:20;12.90;;;9.07;;
5801;SDS011;2927;49.366;8.530;2023-04-25T07:05:46;12.43;;;9.30;;
5801;SDS011;2927;49.366;8.530;2023-04-25T07:08:11;16.77;;;9.93;;
5801;SDS011;2927;49.366;8.530;2023-04-25T07:10:37;17.40;;;10.43;;
5801;SDS011;2927;49.366;8.530;2023-04-25T07:13:03;20.80;;;10.87;;
5801;SDS011;2927;49.366;8.530;2023-04-25T07:15:28;16.87;;;9.47;;
5801;SDS011;2927;49.366;8.530;2023-04-25T07:17:54;23.50;;;9.93;;
5801;SDS011;2927;49.366;8.530;2023-04-25T07:20:19;20.10;;;10.10;;
5801;SDS011;2927;49.366;8.530;2023-04-25T07:22:45;20.80;;;9.73;;
5801;SDS011;2927;49.366;8.530;2023-04-25T07:25:11;24.03;;;10.00;;
5801;SDS011;2927;49.366;8.530;2023-04-25T07:27:36;17.10;;;10.73;;
5801;SDS011;2927;49.366;8.530;2023-04-25T07:30:02;24.50;;;12.20;;
5801;SDS011;2927;49.366;8.530;2023-04-25T07:32:29;18.83;;;10.73;;
5801;SDS011;2927;49.366;8.530;2023-04-25T07:34:55;20.17;;;10.90;;
5801;SDS011;2927;49.366;8.530;2023-04-25T07:37:20;29.97;;;13.93;;
5801;SDS011;2927;49.366;8.530;2023-04-25T07:39:46;30.67;;;12.90;;
5801;SDS011;2927;49.366;8.530;2023-04-25T07:42:12;23.50;;;15.33;;
5801;SDS011;2927;49.366;8.530;2023-04-25T07:44:37;25.03;;;14.03;;
5801;SDS011;2927;49.366;8.530;2023-04-25T07:47:04;19.33;;;11.17;;
5801;SDS011;2927;49.366;8.530;2023-04-25T07:49:31;23.37;;;11.73;;
5801;SDS011;2927;49.366;8.530;2023-04-25T07:52:01;21.43;;;11.97;;
5801;SDS011;2927;49.366;8.530;2023-04-25T07:54:27;20.00;;;10.80;;
5801;SDS011;2927;49.366;8.530;2023-04-25T07:56:53;13.73;;;8.40;;
5801;SDS011;2927;49.366;8.530;2023-04-25T07:59:19;23.40;;;9.53;;
5801;SDS011;2927;49.366;8.530;2023-04-25T08:01:45;19.03;;;9.00;;
5801;SDS011;2927;49.366;8.530;2023-04-25T08:04:10;16.50;;;7.60;;
5801;SDS011;2927;49.366;8.530;2023-04-25T08:06:36;18.20;;;7.60;;
5801;SDS011;2927;49.366;8.530;2023-04-25T08:09:02;16.10;;;6.23;;
5801;SDS011;2927;49.366;8.530;2023-04-25T08:11:28;14.73;;;6.93;;
5801;SDS011;2927;49.366;8.530;2023-04-25T08:13:53;13.60;;;6.93;;
5801;SDS011;2927;49.366;8.530;2023-04-25T08:16:19;14.47;;;7.07;;
5801;SDS011;2927;49.366;8.530;2023-04-25T08:18:44;10.17;;;6.10;;
5801;SDS011;2927;49.366;8.530;2023-04-25T08:21:10;18.17;;;6.77;;
5801;SDS011;2927;49.366;8.530;2023-04-25T08:23:37;19.47;;;7.57;;
5801;SDS011;2927;49.366;8.530;2023-04-25T08:26:03;14.80;;;5.83;;
5801;SDS011;2927;49.366;8.530;2023-04-25T08:28:29;15.30;;;6.90;;
5801;SDS011;2927;49.366;8.530;2023-04-25T08:30:55;18.30;;;6.23;;
5801;SDS011;2927;49.366;8.530;2023-04-25T08:33:20;15.30;;;5.87;;
5801;SDS011;2927;49.366;8.530;2023-04-25T08:35:46;10.97;;;6.17;;
5801;SDS011;2927;49.366;8.530;2023-04-25T08:38:11;16.17;;;7.63;;
5801;SDS011;2927;49.366;8.530;2023-04-25T08:40:38;20.87;;;7.13;;
5801;SDS011;2927;49.366;8.530;2023-04-25T08:43:08;9.10;;;6.30;;
5801;SDS011;2927;49.366;8.530;2023-04-25T08:45:36;15.40;;;7.10;;
5801;SDS011;2927;49.366;8.530;2023-04-25T08:48:06;17.53;;;7.33;;
5801;SDS011;2927;49.366;8.530;2023-04-25T08:50:36;22.63;;;6.87;;
5801;SDS011;2927;49.366;8.530;2023-04-25T08:53:09;18.57;;;7.13;;
5801;SDS011;2927;49.366;8.530;2023-04-25T08:55:41;14.47;;;6.43;;
5801;SDS011;2927;49.366;8.530;2023-04-25T08:58:07;11.70;;;6.50;;
5801;SDS011;2927;49.366;8.530;2023-04-25T09:00:35;16.43;;;6.13;;
5801;SDS011;2927;49.366;8.530;2023-04-25T09:03:00;11.37;;;6.40;;
5801;SDS011;2927;49.366;8.530;2023-04-25T09:05:26;11.33;;;5.87;;
5801;SDS011;2927;49.366;8.530;2023-04-25T09:07:53;8.80;;;5.73;;
5801;SDS011;2927;49.366;8.530;2023-04-25T09:10:19;13.57;;;6.57;;
5801;SDS011;2927;49.366;8.530;2023-04-25T09:12:44;19.03;;;5.90;;
5801;SDS011;2927;49.366;8.530;2023-04-25T09:15:26;15.13;;;6.20;;
5801;SDS011;2927;49.366;8.530;2023-04-25T09:17:55;13.33;;;5.20;;
5801;SDS011;2927;49.366;8.530;2023-04-25T09:20:21;12.67;;;5.80;;
5801;SDS011;2927;49.366;8.530;2023-04-25T09:22:46;13.20;;;6.53;;
5801;SDS011;2927;49.366;8.530;2023-04-25T09:25:12;22.17;;;7.83;;
5801;SDS011;2927;49.366;8.530;2023-04-25T09:27:49;16.47;;;6.83;;
5801;SDS011;2927;49.366;8.530;2023-04-25T09:30:16;19.13;;;6.33;;
5801;SDS011;2927;49.366;8.530;2023-04-25T09:32:42;21.23;;;6.43;;
5801;SDS011;2927;49.366;8.530;2023-04-25T09:35:08;13.47;;;5.87;;
5801;SDS011;2927;49.366;8.530;2023-04-25T09:37:34;12.67;;;5.97;;
5801;SDS011;2927;49.366;8.530;2023-04-25T09:40:00;11.77;;;4.17;;
5801;SDS011;2927;49.366;8.530;2023-04-25T09:42:30;14.50;;;4.60;;
5801;SDS011;2927;49.366;8.530;2023-04-25T09:44:57;7.50;;;3.80;;
5801;SDS011;2927;49.366;8.530;2023-04-25T09:47:26;11.60;;;4.23;;
5801;SDS011;2927;49.366;8.530;2023-04-25T09:49:53;12.20;;;4.03;;
5801;SDS011;2927;49.366;8.530;2023-04-25T09:52:24;8.00;;;4.40;;
5801;SDS011;2927;49.366;8.530;2023-04-25T09:54:50;7.93;;;5.20;;
5801;SDS011;2927;49.366;8.530;2023-04-25T09:57:19;15.50;;;7.13;;
5801;SDS011;2927;49.366;8.530;2023-04-25T09:59:55;12.23;;;5.93;;
5801;SDS011;2927;49.366;8.530;2023-04-25T10:02:23;10.33;;;6.47;;
5801;SDS011;2927;49.366;8.530;2023-04-25T10:04:51;12.63;;;7.07;;
5801;SDS011;2927;49.366;8.530;2023-04-25T10:07:20;15.00;;;7.33;;
5801;SDS011;2927;49.366;8.530;2023-04-25T10:09:50;21.40;;;7.10;;
5801;SDS011;2927;49.366;8.530;2023-04-25T10:12:26;15.30;;;7.80;;
5801;SDS011;2927;49.366;8.530;2023-04-25T10:14:52;14.40;;;7.27;;
5801;SDS011;2927;49.366;8.530;2023-04-25T10:17:19;14.33;;;7.80;;
5801;SDS011;2927;49.366;8.530;2023-04-25T10:19:46;19.57;;;6.97;;
5801;SDS011;2927;49.366;8.530;2023-04-25T10:22:20;13.43;;;6.50;;
5801;SDS011;2927;49.366;8.530;2023-04-25T10:24:53;13.50;;;5.60;;
5801;SDS011;2927;49.366;8.530;2023-04-25T10:27:21;15.30;;;6.67;;
5801;SDS011;2927;49.366;8.530;2023-04-25T10:29:46;16.00;;;6.80;;
5801;SDS011;2927;49.366;8.530;2023-04-25T10:32:43;19.73;;;7.23;;
5801;SDS011;2927;49.366;8.530;2023-04-25T10:35:15;12.63;;;5.63;;
5801;SDS011;2927;49.366;8.530;2023-04-25T10:40:28;10.70;;;5.87;;
5801;SDS011;2927;49.366;8.530;2023-04-25T10:42:55;12.20;;;4.80;;
5801;SDS011;2927;49.366;8.530;2023-04-25T10:45:21;10.10;;;5.80;;
5801;SDS011;2927;49.366;8.530;2023-04-25T10:47:47;11.30;;;5.07;;
5801;SDS011;2927;49.366;8.530;2023-04-25T10:50:16;10.10;;;4.63;;
5801;SDS011;2927;49.366;8.530;2023-04-25T10:52:42;9.13;;;4.93;;
5801;SDS011;2927;49.366;8.530;2023-04-25T10:55:09;6.37;;;5.03;;
5801;SDS011;2927;49.366;8.530;2023-04-25T10:57:44;11.60;;;5.20;;
5801;SDS011;2927;49.366;8.530;2023-04-25T11:00:18;7.63;;;4.77;;
5801;SDS011;2927;49.366;8.530;2023-04-25T11:02:47;9.67;;;5.57;;
5801;SDS011;2927;49.366;8.530;2023-04-25T11:08:00;7.27;;;5.40;;
5801;SDS011;2927;49.366;8.530;2023-04-25T11:10:29;10.43;;;5.80;;
5801;SDS011;2927;49.366;8.530;2023-04-25T11:12:56;10.53;;;5.40;;
5801;SDS011;2927;49.366;8.530;2023-04-25T11:15:25;12.17;;;4.37;;
5801;SDS011;2927;49.366;8.530;2023-04-25T11:17:51;7.00;;;4.40;;
5801;SDS011;2927;49.366;8.530;2023-04-25T11:20:17;7.07;;;5.10;;
5801;SDS011;2927;49.366;8.530;2023-04-25T11:22:44;8.87;;;5.50;;
5801;SDS011;2927;49.366;8.530;2023-04-25T11:25:11;8.80;;;4.10;;
5801;SDS011;2927;49.366;8.530;2023-04-25T11:27:58;9.23;;;4.93;;
5801;SDS011;2927;49.366;8.530;2023-04-25T11:30:26;9.77;;;4.40;;
5801;SDS011;2927;49.366;8.530;2023-04-25T11:32:52;9.03;;;4.90;;
5801;SDS011;2927;49.366;8.530;2023-04-25T11:35:18;8.00;;;3.97;;
5801;SDS011;2927;49.366;8.530;2023-04-25T11:37:47;8.63;;;3.30;;
5801;SDS011;2927;49.366;8.530;2023-04-25T11:40:13;6.40;;;3.70;;
5801;SDS011;2927;49.366;8.530;2023-04-25T11:42:39;7.23;;;3.47;;
5801;SDS011;2927;49.366;8.530;2023-04-25T11:45:09;12.27;;;4.50;;
5801;SDS011;2927;49.366;8.530;2023-04-25T11:47:35;5.50;;;3.70;;
5801;SDS011;2927;49.366;8.530;2023-04-25T11:50:02;5.10;;;3.70;;
5801;SDS011;2927;49.366;8.530;2023-04-25T11:55:23;15.10;;;4.73;;
5801;SDS011;2927;49.366;8.530;2023-04-25T11:57:49;5.47;;;4.00;;
5801;SDS011;2927;49.366;8.530;2023-04-25T12:00:16;7.33;;;3.83;;
5801;SDS011;2927;49.366;8.530;2023-04-25T12:02:44;6.77;;;3.47;;
5801;SDS011;2927;49.366;8.530;2023-04-25T12:05:11;7.80;;;4.13;;
5801;SDS011;2927;49.366;8.530;2023-04-25T12:07:38;6.00;;;3.37;;
5801;SDS011;2927;49.366;8.530;2023-04-25T12:10:04;11.00;;;4.27;;
5801;SDS011;2927;49.366;8.530;2023-04-25T12:12:32;7.07;;;4.33;;
5801;SDS011;2927;49.366;8.530;2023-04-25T12:15:07;8.10;;;4.30;;
5801;SDS011;2927;49.366;8.530;2023-04-25T12:17:40;7.93;;;3.90;;
5801;SDS011;2927;49.366;8.530;2023-04-25T12:20:10;7.77;;;4.00;;
5801;SDS011;2927;49.366;8.530;2023-04-25T12:22:42;4.90;;;4.07;;
5801;SDS011;2927;49.366;8.530;2023-04-25T12:25:10;6.90;;;3.77;;
5801;SDS011;2927;49.366;8.530;2023-04-25T12:27:37;11.13;;;5.40;;
5801;SDS011;2927;49.366;8.530;2023-04-25T12:30:05;6.30;;;3.80;;
5801;SDS011;2927;49.366;8.530;2023-04-25T12:32:31;10.30;;;3.50;;
5801;SDS011;2927;49.366;8.530;2023-04-25T12:34:57;6.67;;;3.57;;
5801;SDS011;2927;49.366;8.530;2023-04-25T12:37:22;7.63;;;3.20;;
5801;SDS011;2927;49.366;8.530;2023-04-25T12:39:48;5.70;;;4.27;;
5801;SDS011;2927;49.366;8.530;2023-04-25T12:42:14;5.80;;;3.73;;
5801;SDS011;2927;49.366;8.530;2023-04-25T12:44:39;7.20;;;3.10;;
5801;SDS011;2927;49.366;8.530;2023-04-25T12:47:05;12.50;;;3.13;;
5801;SDS011;2927;49.366;8.530;2023-04-25T12:49:31;10.43;;;5.70;;
5801;SDS011;2927;49.366;8.530;2023-04-25T12:51:57;7.50;;;3.77;;
5801;SDS011;2927;49.366;8.530;2023-04-25T12:54:23;4.93;;;3.00;;
5801;SDS011;2927;49.366;8.530;2023-04-25T12:56:48;3.90;;;2.47;;
5801;SDS011;2927;49.366;8.530;2023-04-25T12:59:15;2.67;;;2.30;;
5801;SDS011;2927;49.366;8.530;2023-04-25T13:01:40;5.07;;;3.13;;
5801;SDS011;2927;49.366;8.530;2023-04-25T13:04:06;4.63;;;2.90;;
5801;SDS011;2927;49.366;8.530;2023-04-25T13:06:31;7.63;;;3.20;;
5801;SDS011;2927;49.366;8.530;2023-04-25T13:08:57;3.40;;;3.10;;
5801;SDS011;2927;49.366;8.530;2023-04-25T13:11:22;4.70;;;2.80;;
5801;SDS011;2927;49.366;8.530;2023-04-25T13:13:48;4.40;;;2.90;;
5801;SDS011;2927;49.366;8.530;2023-04-25T13:16:14;4.27;;;3.33;;
5801;SDS011;2927;49.366;8.530;2023-04-25T13:18:39;4.03;;;3.40;;
5801;SDS011;2927;49.366;8.530;2023-04-25T13:21:05;7.87;;;3.57;;
5801;SDS011;2927;49.366;8.530;2023-04-25T13:23:31;6.20;;;4.27;;
5801;SDS011;2927;49.366;8.530;2023-04-25T13:25:56;7.83;;;3.80;;
5801;SDS011;2927;49.366;8.530;2023-04-25T13:28:23;6.43;;;4.10;;
5801;SDS011;2927;49.366;8.530;2023-04-25T13:30:49;13.43;;;4.10;;
5801;SDS011;2927;49.366;8.530;2023-04-25T13:33:15;10.43;;;5.00;;
5801;SDS011;2927;49.366;8.530;2023-04-25T13:35:41;8.90;;;4.00;;
5801;SDS011;2927;49.366;8.530;2023-04-25T13:38:07;15.60;;;8.70;;
5801;SDS011;2927;49.366;8.530;2023-04-25T13:40:34;7.60;;;3.90;;
5801;SDS011;2927;49.366;8.530;2023-04-25T13:43:00;7.03;;;3.80;;
5801;SDS011;2927;49.366;8.530;2023-04-25T13:45:26;8.73;;;4.40;;
5801;SDS011;2927;49.366;8.530;2023-04-25T13:47:52;8.50;;;4.40;;
5801;SDS011;2927;49.366;8.530;2023-04-25T13:50:17;8.67;;;5.07;;
5801;SDS011;2927;49.366;8.530;2023-04-25T13:52:43;12.20;;;5.60;;
5801;SDS011;2927;49.366;8.530;2023-04-25T13:55:08;8.30;;;5.17;;
5801;SDS011;2927;49.366;8.530;2023-04-25T13:57:35;10.40;;;5.57;;
5801;SDS011;2927;49.366;8.530;2023-04-25T14:00:01;12.17;;;5.50;;
5801;SDS011;2927;49.366;8.530;2023-04-25T14:02:34;12.23;;;5.03;;
5801;SDS011;2927;49.366;8.530;2023-04-25T14:05:00;8.73;;;5.00;;
5801;SDS011;2927;49.366;8.530;2023-04-25T14:07:26;11.23;;;5.40;;
5801;SDS011;2927;49.366;8.530;2023-04-25T14:09:51;7.83;;;4.80;;
5801;SDS011;2927;49.366;8.530;2023-04-25T14:12:17;8.00;;;4.23;;
5801;SDS011;2927;49.366;8.530;2023-04-25T14:14:42;13.10;;;4.47;;
5801;SDS011;2927;49.366;8.530;2023-04-25T14:17:08;10.10;;;4.70;;
5801;SDS011;2927;49.366;8.530;2023-04-25T14:19:34;9.90;;;4.53;;
5801;SDS011;2927;49.366;8.530;2023-04-25T14:21:59;6.03;;;3.67;;
5801;SDS011;2927;49.366;8.530;2023-04-25T14:24:25;18.43;;;4.47;;
5801;SDS011;2927;49.366;8.530;2023-04-25T14:26:51;11.50;;;3.87;;
5801;SDS011;2927;49.366;8.530;2023-04-25T14:29:16;6.57;;;3.87;;
5801;SDS011;2927;49.366;8.530;2023-04-25T14:31:42;15.97;;;5.40;;
5801;SDS011;2927;49.366;8.530;2023-04-25T14:34:07;10.07;;;4.63;;
5801;SDS011;2927;49.366;8.530;2023-04-25T14:36:33;8.53;;;4.07;;
5801;SDS011;2927;49.366;8.530;2023-04-25T14:39:01;6.40;;;3.73;;
5801;SDS011;2927;49.366;8.530;2023-04-25T14:41:26;7.10;;;3.80;;
5801;SDS011;2927;49.366;8.530;2023-04-25T14:43:52;10.80;;;3.47;;
5801;SDS011;2927;49.366;8.530;2023-04-25T14:46:18;12.77;;;4.20;;
5801;SDS011;2927;49.366;8.530;2023-04-25T14:48:48;7.70;;;3.57;;
5801;SDS011;2927;49.366;8.530;2023-04-25T14:51:13;7.40;;;4.30;;
5801;SDS011;2927;49.366;8.530;2023-04-25T14:53:39;7.13;;;3.80;;
5801;SDS011;2927;49.366;8.530;2023-04-25T14:56:05;10.53;;;4.17;;
5801;SDS011;2927;49.366;8.530;2023-04-25T14:58:32;9.67;;;4.80;;
5801;SDS011;2927;49.366;8.530;2023-04-25T15:00:58;9.93;;;3.67;;
5801;SDS011;2927;49.366;8.530;2023-04-25T15:03:24;6.83;;;3.60;;
5801;SDS011;2927;49.366;8.530;2023-04-25T15:05:49;11.13;;;3.87;;
5801;SDS011;2927;49.366;8.530;2023-04-25T15:08:15;17.97;;;4.10;;
5801;SDS011;2927;49.366;8.530;2023-04-25T15:10:41;9.00;;;3.47;;
5801;SDS011;2927;49.366;8.530;2023-04-25T15:13:06;7.33;;;3.80;;
5801;SDS011;2927;49.366;8.530;2023-04-25T15:15:32;13.40;;;3.60;;
5801;SDS011;2927;49.366;8.530;2023-04-25T15:17:58;18.70;;;4.30;;
5801;SDS011;2927;49.366;8.530;2023-04-25T15:20:23;15.90;;;4.13;;
5801;SDS011;2927;49.366;8.530;2023-04-25T15:22:49;9.10;;;4.57;;
5801;SDS011;2927;49.366;8.530;2023-04-25T15:25:15;6.90;;;3.80;;
5801;SDS011;2927;49.366;8.530;2023-04-25T15:27:44;7.20;;;3.83;;
5801;SDS011;2927;49.366;8.530;2023-04-25T15:30:13;10.67;;;5.13;;
5801;SDS011;2927;49.366;8.530;2023-04-25T15:32:40;12.67;;;3.70;;
5801;SDS011;2927;49.366;8.530;2023-04-25T15:35:07;13.40;;;4.37;;
5801;SDS011;2927;49.366;8.530;2023-04-25T15:37:33;9.43;;;4.07;;
5801;SDS011;2927;49.366;8.530;2023-04-25T15:40:01;8.83;;;4.40;;
5801;SDS011;2927;49.366;8.530;2023-04-25T15:42:37;12.27;;;4.13;;
5801;SDS011;2927;49.366;8.530;2023-04-25T15:45:05;8.43;;;4.63;;
5801;SDS011;2927;49.366;8.530;2023-04-25T15:47:32;9.50;;;4.20;;
5801;SDS011;2927;49.366;8.530;2023-04-25T15:49:58;16.37;;;4.60;;
5801;SDS011;2927;49.366;8.530;2023-04-25T15:52:25;6.33;;;3.63;;
5801;SDS011;2927;49.366;8.530;2023-04-25T15:54:51;10.13;;;4.10;;
5801;SDS011;2927;49.366;8.530;2023-04-25T15:57:17;8.93;;;3.73;;